createdAt,value
2022-08-02T00:01:04.401Z,12.99
2022-08-02T00:03:33.168Z,12.99
2022-08-02T00:06:02.098Z,12.97
2022-08-02T00:08:30.598Z,12.97
2022-08-02T00:10:59.036Z,12.97
2022-08-02T00:13:27.482Z,12.98
2022-08-02T00:15:56.597Z,12.96
2022-08-02T00:18:25.155Z,12.98
2022-08-02T00:20:53.535Z,12.98
2022-08-02T00:23:21.970Z,12.96
2022-08-02T00:25:55.269Z,12.93
2022-08-02T00:28:27.993Z,12.93
2022-08-02T00:30:58.537Z,12.92
2022-08-02T00:34:05.295Z,12.91
2022-08-02T00:36:16.092Z,12.90
2022-08-02T00:38:45.187Z,12.90
2022-08-02T00:41:16.722Z,12.90
2022-08-02T00:43:48.855Z,12.88
2022-08-02T00:46:18.439Z,12.87
2022-08-02T00:48:48.106Z,12.85
2022-08-02T00:51:18.252Z,12.81
2022-08-02T00:53:47.117Z,12.79
2022-08-02T00:56:15.582Z,12.76
2022-08-02T00:58:43.988Z,12.73
2022-08-02T01:01:12.651Z,12.71
2022-08-02T01:03:41.222Z,12.70
2022-08-02T01:06:11.786Z,12.70
2022-08-02T01:08:41.634Z,12.69
2022-08-02T01:11:12.327Z,12.66
2022-08-02T01:13:41.266Z,12.65
2022-08-02T01:16:16.116Z,12.62
2022-08-02T01:18:48.178Z,12.60
2022-08-02T01:21:41.265Z,12.59
2022-08-02T01:24:35.403Z,12.57
2022-08-02T01:27:03.770Z,12.55
2022-08-02T01:29:37.376Z,12.53
2022-08-02T01:32:14.156Z,12.50
2022-08-02T01:34:49.669Z,12.48
2022-08-02T01:37:35.205Z,12.46
2022-08-02T01:40:14.269Z,12.44
2022-08-02T01:42:54.135Z,12.42
2022-08-02T01:45:29.701Z,12.39
2022-08-02T01:48:00.237Z,12.37
2022-08-02T01:50:33.769Z,12.34
2022-08-02T01:53:07.729Z,12.32
2022-08-02T01:55:56.762Z,12.31
2022-08-02T01:58:28.657Z,12.30
2022-08-02T02:00:58.363Z,12.28
2022-08-02T02:03:29.223Z,12.27
2022-08-02T02:06:01.545Z,12.26
2022-08-02T02:08:36.588Z,12.26
2022-08-02T02:12:08.645Z,12.25
2022-08-02T02:13:58.928Z,12.26
2022-08-02T02:16:28.659Z,12.26
2022-08-02T02:18:57.661Z,12.27
2022-08-02T02:21:27.101Z,12.25
2022-08-02T02:23:55.770Z,12.23
2022-08-02T02:26:29.744Z,12.18
2022-08-02T02:29:02.847Z,12.16
2022-08-02T02:31:39.129Z,12.13
2022-08-02T02:34:07.408Z,12.12
2022-08-02T02:36:38.249Z,12.12
2022-08-02T02:39:13.061Z,12.14
2022-08-02T02:41:44.812Z,12.15
2022-08-02T02:44:18.785Z,12.19
2022-08-02T02:46:51.061Z,12.18
2022-08-02T02:49:21.491Z,12.19
2022-08-02T02:51:51.515Z,12.19
2022-08-02T02:54:32.698Z,12.20
2022-08-02T02:57:05.863Z,12.21
2022-08-02T02:59:42.921Z,12.20
2022-08-02T03:02:19.842Z,12.18
2022-08-02T03:04:56.877Z,12.18
2022-08-02T03:07:26.997Z,12.17
2022-08-02T03:09:55.755Z,12.17
2022-08-02T03:12:30.543Z,12.16
2022-08-02T03:15:06.559Z,12.16
2022-08-02T03:17:43.362Z,12.16
2022-08-02T03:20:14.912Z,12.15
2022-08-02T03:22:45.003Z,12.14
2022-08-02T03:25:14.634Z,12.15
2022-08-02T03:27:43.556Z,12.12
2022-08-02T03:30:13.709Z,12.12
2022-08-02T03:32:47.036Z,12.12
2022-08-02T03:35:23.287Z,12.13
2022-08-02T03:37:57.764Z,12.14
2022-08-02T03:40:28.226Z,12.14
2022-08-02T03:42:57.504Z,12.13
2022-08-02T03:45:26.541Z,12.14
2022-08-02T03:47:58.784Z,12.14
2022-08-02T03:50:28.230Z,12.14
2022-08-02T03:52:57.351Z,12.14
2022-08-02T03:55:26.534Z,12.14
2022-08-02T03:57:54.930Z,12.16
2022-08-02T04:00:23.743Z,12.18
2022-08-02T04:02:52.313Z,12.18
2022-08-02T04:05:20.918Z,12.20
2022-08-02T04:08:33.787Z,12.22
2022-08-02T04:10:56.288Z,12.23
2022-08-02T04:13:31.858Z,12.23
2022-08-02T04:16:31.560Z,12.26
2022-08-02T04:19:05.622Z,12.28
2022-08-02T04:21:51.174Z,12.31
2022-08-02T04:24:24.797Z,12.34
2022-08-02T04:26:58.056Z,12.40
2022-08-02T04:29:36.628Z,12.45
2022-08-02T04:32:05.655Z,12.50
2022-08-02T04:34:34.636Z,12.52
2022-08-02T04:37:03.150Z,12.55
2022-08-02T04:39:31.747Z,12.57
2022-08-02T04:42:00.251Z,12.60
2022-08-02T04:44:28.883Z,12.62
2022-08-02T04:47:04.789Z,12.65
2022-08-02T04:49:35.068Z,12.75
2022-08-02T04:52:03.768Z,13.24
2022-08-02T04:54:32.114Z,14.04
2022-08-02T04:57:00.684Z,14.84
2022-08-02T04:59:29.020Z,15.65
2022-08-02T05:01:57.302Z,16.41
2022-08-02T05:04:25.930Z,17.10
2022-08-02T05:06:54.260Z,17.73
2022-08-02T05:09:22.562Z,18.23
2022-08-02T05:11:55.121Z,18.72
2022-08-02T05:14:23.682Z,19.06
2022-08-02T05:16:52.197Z,19.21
2022-08-02T05:19:20.683Z,19.56
2022-08-02T05:21:49.055Z,20.00
2022-08-02T05:24:17.414Z,20.42
2022-08-02T05:26:45.914Z,20.83
2022-08-02T05:29:14.335Z,21.25
2022-08-02T05:31:43.189Z,21.52
2022-08-02T05:34:12.270Z,21.74
2022-08-02T05:36:42.364Z,21.84
2022-08-02T05:39:12.419Z,21.87
2022-08-02T05:41:47.868Z,21.45
2022-08-02T05:44:16.659Z,20.99
2022-08-02T05:46:45.416Z,20.86
2022-08-02T05:49:19.365Z,21.09
2022-08-02T05:52:15.019Z,21.19
2022-08-02T05:54:52.892Z,21.06
2022-08-02T05:57:43.430Z,21.30
2022-08-02T06:00:14.514Z,21.66
2022-08-02T06:02:44.040Z,21.67
2022-08-02T06:05:14.455Z,21.31
2022-08-02T06:07:44.669Z,20.96
2022-08-02T06:10:15.020Z,20.70
2022-08-02T06:12:48.720Z,20.43
2022-08-02T06:15:19.302Z,20.12
2022-08-02T06:17:48.066Z,19.86
2022-08-02T06:20:16.527Z,19.66
2022-08-02T06:22:45.360Z,19.46
2022-08-02T06:25:49.902Z,19.27
2022-08-02T06:28:10.646Z,19.08
2022-08-02T06:30:40.927Z,18.97
2022-08-02T06:33:09.628Z,18.89
2022-08-02T06:36:19.648Z,18.84
2022-08-02T06:39:17.976Z,18.79
2022-08-02T06:41:49.525Z,18.77
2022-08-02T06:44:47.835Z,18.71
2022-08-02T06:47:14.069Z,18.66
2022-08-02T06:49:52.087Z,18.62
2022-08-02T06:52:28.439Z,18.56
2022-08-02T06:54:59.925Z,18.56
2022-08-02T06:57:30.497Z,18.61
2022-08-02T07:00:01.788Z,18.67
2022-08-02T07:02:31.306Z,18.74
2022-08-02T07:04:59.880Z,18.76
2022-08-02T07:07:28.298Z,18.78
2022-08-02T07:10:01.283Z,18.83
2022-08-02T07:12:34.191Z,18.89
2022-08-02T07:15:06.086Z,18.96
2022-08-02T07:17:36.009Z,18.99
2022-08-02T07:20:05.173Z,19.00
2022-08-02T07:22:33.619Z,19.04
2022-08-02T07:25:02.553Z,19.12
2022-08-02T07:27:31.242Z,19.21
2022-08-02T07:30:00.660Z,19.28
2022-08-02T07:32:32.121Z,19.34
2022-08-02T07:35:02.670Z,19.39
2022-08-02T07:37:54.984Z,19.47
2022-08-02T07:40:27.579Z,19.54
2022-08-02T07:43:03.102Z,19.59
2022-08-02T07:45:35.620Z,19.68
2022-08-02T07:48:06.066Z,19.73
2022-08-02T07:50:34.870Z,19.80
2022-08-02T07:53:03.493Z,19.89
2022-08-02T07:55:40.174Z,19.99
2022-08-02T07:58:13.538Z,20.11
2022-08-02T08:00:43.646Z,20.22
2022-08-02T08:03:13.192Z,20.29
2022-08-02T08:05:41.933Z,20.39
2022-08-02T08:08:16.694Z,20.50
2022-08-02T08:10:46.690Z,20.58
2022-08-02T08:13:16.196Z,20.64
2022-08-02T08:15:52.131Z,20.69
2022-08-02T08:18:22.157Z,20.78
2022-08-02T08:20:51.761Z,20.88
2022-08-02T08:23:20.223Z,20.94
2022-08-02T08:25:48.740Z,20.96
2022-08-02T08:28:17.339Z,20.98
2022-08-02T08:30:47.333Z,21.00
2022-08-02T08:33:16.442Z,21.05
2022-08-02T08:35:44.852Z,21.07
2022-08-02T08:38:15.713Z,21.11
2022-08-02T08:40:44.897Z,21.17
2022-08-02T08:43:14.366Z,21.27
2022-08-02T08:45:55.868Z,21.34
2022-08-02T08:48:31.014Z,21.41
2022-08-02T08:51:21.621Z,21.47
2022-08-02T08:53:54.238Z,21.51
2022-08-02T08:56:23.519Z,21.52
2022-08-02T08:58:51.969Z,21.55
2022-08-02T09:01:21.583Z,21.62
2022-08-02T09:03:50.038Z,21.67
2022-08-02T09:06:20.613Z,21.75
2022-08-02T09:08:49.657Z,21.85
2022-08-02T09:11:20.335Z,21.96
2022-08-02T09:14:00.899Z,22.05
2022-08-02T09:16:42.349Z,22.10
2022-08-02T09:19:26.026Z,22.13
2022-08-02T09:22:04.837Z,22.17
2022-08-02T09:24:53.904Z,22.27
2022-08-02T09:27:23.406Z,22.35
2022-08-02T09:30:12.497Z,22.44
2022-08-02T09:32:47.097Z,22.47
2022-08-02T09:36:05.349Z,22.52
2022-08-02T09:38:26.436Z,22.64
2022-08-02T09:40:55.927Z,22.71
2022-08-02T09:44:03.276Z,22.76
2022-08-02T09:46:33.554Z,22.77
2022-08-02T09:49:05.406Z,22.80
2022-08-02T09:51:48.754Z,22.81
2022-08-02T09:54:29.106Z,22.84
2022-08-02T09:56:59.971Z,22.87
2022-08-02T09:59:29.184Z,22.87
2022-08-02T10:02:02.231Z,22.86
2022-08-02T10:04:34.325Z,22.81
2022-08-02T10:07:23.010Z,22.80
2022-08-02T10:09:52.129Z,22.85
2022-08-02T10:12:23.814Z,22.90
2022-08-02T10:14:52.765Z,22.97
2022-08-02T10:17:21.441Z,23.05
2022-08-02T10:20:02.706Z,23.13
2022-08-02T10:22:35.442Z,23.23
2022-08-02T10:25:06.045Z,23.38
2022-08-02T10:27:55.450Z,23.51
2022-08-02T10:30:27.392Z,23.64
2022-08-02T10:32:59.903Z,23.71
2022-08-02T10:35:31.124Z,23.82
2022-08-02T10:38:03.515Z,23.92
2022-08-02T10:40:47.323Z,24.01
2022-08-02T10:43:37.025Z,24.11
2022-08-02T10:46:20.419Z,24.17
2022-08-02T10:49:18.509Z,24.25
2022-08-02T10:52:06.047Z,24.33
2022-08-02T10:54:42.543Z,24.46
2022-08-02T10:57:19.141Z,24.58
2022-08-02T10:59:49.241Z,24.67
2022-08-02T11:02:38.998Z,24.74
2022-08-02T11:05:10.379Z,24.78
2022-08-02T11:07:42.431Z,24.88
2022-08-02T11:10:25.250Z,24.95
2022-08-02T11:13:11.897Z,25.06
2022-08-02T11:16:01.734Z,25.23
2022-08-02T11:18:51.846Z,25.43
2022-08-02T11:21:25.373Z,25.64
2022-08-02T11:23:55.070Z,25.80
2022-08-02T11:26:30.014Z,25.88
2022-08-02T11:29:04.200Z,25.86
2022-08-02T11:31:43.541Z,25.80
2022-08-02T11:34:36.779Z,25.74
2022-08-02T11:37:01.144Z,25.63
2022-08-02T11:39:29.565Z,25.57
2022-08-02T11:42:00.896Z,25.60
2022-08-02T11:44:40.950Z,25.66
2022-08-02T11:47:14.337Z,25.66
2022-08-02T11:49:44.878Z,25.70
2022-08-02T11:52:13.873Z,25.79
2022-08-02T11:54:43.792Z,25.83
2022-08-02T11:57:20.292Z,25.83
2022-08-02T11:59:52.081Z,25.79
2022-08-02T12:02:29.148Z,25.74
2022-08-02T12:05:02.128Z,25.66
2022-08-02T12:07:36.039Z,25.63
2022-08-02T12:10:18.707Z,25.60
2022-08-02T12:13:07.636Z,25.59
2022-08-02T12:15:41.813Z,25.56
2022-08-02T12:18:41.113Z,25.57
2022-08-02T12:21:26.779Z,25.67
2022-08-02T12:23:59.266Z,25.75
2022-08-02T12:26:29.985Z,25.75
2022-08-02T12:28:59.782Z,25.74
2022-08-02T12:31:55.893Z,25.65
2022-08-02T12:34:31.493Z,25.52
2022-08-02T12:37:00.897Z,25.41
2022-08-02T12:39:43.694Z,25.34
2022-08-02T12:42:14.834Z,25.32
2022-08-02T12:44:54.303Z,25.30
2022-08-02T12:47:22.733Z,25.28
2022-08-02T12:50:24.632Z,25.24
2022-08-02T12:53:15.631Z,25.20
2022-08-02T12:56:01.154Z,25.15
2022-08-02T12:58:46.276Z,25.12
2022-08-02T13:01:21.525Z,25.11
2022-08-02T13:04:11.062Z,25.10
2022-08-02T13:06:44.416Z,25.09
2022-08-02T13:09:17.775Z,25.09
2022-08-02T13:11:49.001Z,25.06
2022-08-02T13:14:17.688Z,25.04
2022-08-02T13:16:47.147Z,25.03
2022-08-02T13:19:16.105Z,25.05
2022-08-02T13:22:01.098Z,25.05
2022-08-02T13:24:40.150Z,25.03
2022-08-02T13:27:21.830Z,25.00
2022-08-02T13:29:51.805Z,24.97
2022-08-02T13:32:21.058Z,24.93
2022-08-02T13:34:50.632Z,24.87
2022-08-02T13:37:19.922Z,24.83
2022-08-02T13:40:11.874Z,24.73
2022-08-02T13:42:36.813Z,24.64
2022-08-02T13:45:13.416Z,24.59
2022-08-02T13:48:03.388Z,24.54
2022-08-02T13:50:32.996Z,24.47
2022-08-02T13:53:01.533Z,24.41
2022-08-02T13:55:31.080Z,24.33
2022-08-02T13:58:00.620Z,24.27
2022-08-02T14:00:35.570Z,24.20
2022-08-02T14:03:07.061Z,24.19
2022-08-02T14:05:48.460Z,24.18
2022-08-02T14:08:23.066Z,24.20
2022-08-02T14:10:52.100Z,24.22
2022-08-02T14:13:20.767Z,24.25
2022-08-02T14:15:49.236Z,24.26
2022-08-02T14:18:17.619Z,24.22
2022-08-02T14:20:46.667Z,24.19
2022-08-02T14:23:15.175Z,24.15
2022-08-02T14:25:44.133Z,24.11
2022-08-02T14:28:12.653Z,24.07
2022-08-02T14:30:41.093Z,24.08
2022-08-02T14:33:09.488Z,24.11
2022-08-02T14:35:38.072Z,24.13
2022-08-02T14:38:07.257Z,24.16
2022-08-02T14:40:36.206Z,24.21
2022-08-02T14:43:04.983Z,24.24
2022-08-02T14:45:40.142Z,24.28
2022-08-02T14:48:12.313Z,24.33
2022-08-02T14:50:41.245Z,24.37
2022-08-02T14:53:12.564Z,24.39
2022-08-02T14:55:42.712Z,24.39
2022-08-02T14:58:12.025Z,24.38
2022-08-02T15:00:43.906Z,24.37
2022-08-02T15:03:13.512Z,24.38
2022-08-02T15:05:42.099Z,24.42
2022-08-02T15:08:10.579Z,24.44
2022-08-02T15:10:38.940Z,24.48
2022-08-02T15:13:07.612Z,24.54
2022-08-02T15:15:43.357Z,24.60
2022-08-02T15:18:14.196Z,24.71
2022-08-02T15:20:43.950Z,24.77
2022-08-02T15:23:24.965Z,24.84
2022-08-02T15:26:04.074Z,24.93
2022-08-02T15:28:33.137Z,24.96
2022-08-02T15:31:01.518Z,24.98
2022-08-02T15:33:29.891Z,25.03
2022-08-02T15:36:00.030Z,25.07
2022-08-02T15:38:28.811Z,25.12
2022-08-02T15:41:00.654Z,25.21
2022-08-02T15:43:29.217Z,25.26
2022-08-02T15:46:00.174Z,25.32
2022-08-02T15:48:28.681Z,25.40
2022-08-02T15:50:58.093Z,25.48
2022-08-02T15:53:26.777Z,25.55
2022-08-02T15:56:05.721Z,25.58
2022-08-02T15:58:40.656Z,25.57
2022-08-02T16:01:13.340Z,25.54
2022-08-02T16:03:45.151Z,25.52
2022-08-02T16:06:13.591Z,25.51
2022-08-02T16:08:45.264Z,25.49
2022-08-02T16:11:22.887Z,25.44
2022-08-02T16:13:54.637Z,25.41
2022-08-02T16:16:25.015Z,25.40
2022-08-02T16:18:56.436Z,25.36
2022-08-02T16:21:25.825Z,25.30
2022-08-02T16:24:02.593Z,25.26
2022-08-02T16:26:32.147Z,25.16
2022-08-02T16:29:02.925Z,25.11
2022-08-02T16:31:31.491Z,25.08
2022-08-02T16:34:00.799Z,25.07
2022-08-02T16:36:30.582Z,25.04
2022-08-02T16:38:59.183Z,25.00
2022-08-02T16:41:50.530Z,24.96
2022-08-02T16:44:15.905Z,24.89
2022-08-02T16:46:45.667Z,24.83
2022-08-02T16:50:05.092Z,24.79
2022-08-02T16:52:03.158Z,24.78
2022-08-02T16:54:32.287Z,24.81
2022-08-02T16:57:00.717Z,24.84
2022-08-02T16:59:41.421Z,24.88
2022-08-02T17:02:17.945Z,24.93
2022-08-02T17:04:47.615Z,24.93
2022-08-02T17:08:16.338Z,24.94
2022-08-02T17:10:09.546Z,24.96
2022-08-02T17:12:39.343Z,24.97
2022-08-02T17:16:01.361Z,24.97
2022-08-02T17:17:58.234Z,24.96
2022-08-02T17:20:26.970Z,24.94
2022-08-02T17:22:56.296Z,24.92
2022-08-02T17:25:31.739Z,24.91
2022-08-02T17:28:01.051Z,24.88
2022-08-02T17:30:29.987Z,24.86
2022-08-02T17:33:01.636Z,24.83
2022-08-02T17:35:43.480Z,24.84
2022-08-02T17:38:27.380Z,24.83
2022-08-02T17:40:56.655Z,24.84
2022-08-02T17:43:29.005Z,24.84
2022-08-02T17:45:59.863Z,24.81
2022-08-02T17:48:49.234Z,24.76
2022-08-02T17:52:14.797Z,24.69
2022-08-02T17:54:06.212Z,24.60
2022-08-02T17:56:35.066Z,24.49
2022-08-02T17:59:20.884Z,24.40
2022-08-02T18:01:52.868Z,24.31
2022-08-02T18:04:27.750Z,24.25
2022-08-02T18:06:59.019Z,24.19
2022-08-02T18:09:33.027Z,24.12
2022-08-02T18:12:03.007Z,24.09
2022-08-02T18:14:31.812Z,24.06
2022-08-02T18:17:00.717Z,24.04
2022-08-02T18:19:33.171Z,24.02
2022-08-02T18:22:12.141Z,24.02
2022-08-02T18:24:40.915Z,24.01
2022-08-02T18:27:13.142Z,24.01
2022-08-02T18:29:41.551Z,24.01
2022-08-02T18:32:12.200Z,23.99
2022-08-02T18:34:40.966Z,23.98
2022-08-02T18:37:17.746Z,23.92
2022-08-02T18:39:51.381Z,23.87
2022-08-02T18:42:20.269Z,23.79
2022-08-02T18:44:48.969Z,23.73
2022-08-02T18:47:17.519Z,23.67
2022-08-02T18:52:34.215Z,23.53
2022-08-02T18:55:07.390Z,23.45
2022-08-02T18:58:18.331Z,23.39
2022-08-02T19:00:27.660Z,23.31
2022-08-02T19:02:56.182Z,23.25
2022-08-02T19:05:53.699Z,23.18
2022-08-02T19:08:13.306Z,23.12
2022-08-02T19:10:49.153Z,23.06
2022-08-02T19:13:18.903Z,23.00
2022-08-02T19:15:47.982Z,22.94
2022-08-02T19:18:16.378Z,22.90
2022-08-02T19:20:48.339Z,22.85
2022-08-02T19:23:17.376Z,22.81
2022-08-02T19:25:54.507Z,22.77
2022-08-02T19:28:26.158Z,22.74
2022-08-02T19:31:11.819Z,22.68
2022-08-02T19:34:05.870Z,22.65
2022-08-02T19:36:28.905Z,22.57
2022-08-02T19:38:59.326Z,22.51
2022-08-02T19:41:27.732Z,22.46
2022-08-02T19:47:04.249Z,22.36
2022-08-02T19:49:40.862Z,22.32
2022-08-02T19:52:20.437Z,22.27
2022-08-02T19:54:55.944Z,22.19
2022-08-02T19:57:42.075Z,22.13
2022-08-02T20:00:11.911Z,22.07
2022-08-02T20:02:49.966Z,22.00
2022-08-02T20:05:26.604Z,21.94
2022-08-02T20:07:56.410Z,21.86
2022-08-02T20:10:25.512Z,21.80
2022-08-02T20:12:54.694Z,21.74
2022-08-02T20:15:23.265Z,21.67
2022-08-02T20:18:13.342Z,21.59
2022-08-02T20:20:45.226Z,21.51
2022-08-02T20:23:32.286Z,21.43
2022-08-02T20:26:06.168Z,21.35
2022-08-02T20:28:41.526Z,21.29
2022-08-02T20:31:12.317Z,21.22
2022-08-02T20:33:55.850Z,21.17
2022-08-02T20:36:26.600Z,21.11
2022-08-02T20:38:55.510Z,21.07
2022-08-02T20:41:37.194Z,21.02
2022-08-02T20:44:30.713Z,20.98
2022-08-02T20:46:59.712Z,20.93
2022-08-02T20:49:41.172Z,20.89
2022-08-02T20:52:23.331Z,20.84
2022-08-02T20:54:52.859Z,20.80
2022-08-02T20:57:36.154Z,20.77
2022-08-02T21:00:11.655Z,20.73
2022-08-02T21:02:40.949Z,20.71
2022-08-02T21:05:17.259Z,20.69
2022-08-02T21:07:47.797Z,20.66
2022-08-02T21:10:24.009Z,20.63
2022-08-02T21:12:53.003Z,20.59
2022-08-02T21:15:24.983Z,20.56
2022-08-02T21:17:59.743Z,20.53
2022-08-02T21:20:33.562Z,20.49
2022-08-02T21:23:02.271Z,20.46
2022-08-02T21:25:42.719Z,20.44
2022-08-02T21:28:20.035Z,20.41
2022-08-02T21:30:52.513Z,20.37
2022-08-02T21:33:23.562Z,20.34
2022-08-02T21:35:52.682Z,20.32
2022-08-02T21:38:35.850Z,20.29
2022-08-02T21:41:12.102Z,20.24
2022-08-02T21:43:43.974Z,20.22
2022-08-02T21:46:14.563Z,20.20
2022-08-02T21:48:44.907Z,20.16
2022-08-02T21:51:15.882Z,20.15
2022-08-02T21:54:16.876Z,20.12
2022-08-02T21:56:33.823Z,20.09
2022-08-02T21:59:14.841Z,20.08
2022-08-02T22:01:53.001Z,20.04
2022-08-02T22:04:22.485Z,20.03
2022-08-02T22:06:51.009Z,19.99
2022-08-02T22:09:44.521Z,19.97
2022-08-02T22:12:10.228Z,19.94
2022-08-02T22:14:41.316Z,19.91
2022-08-02T22:17:13.743Z,19.89
2022-08-02T22:19:51.049Z,19.86
2022-08-02T22:22:28.087Z,19.84
2022-08-02T22:24:57.276Z,19.83
2022-08-02T22:28:13.271Z,19.81
2022-08-02T22:30:13.899Z,19.79
2022-08-02T22:33:15.518Z,19.77
2022-08-02T22:35:44.034Z,19.74
2022-08-02T22:38:15.256Z,19.70
2022-08-02T22:40:48.820Z,19.67
2022-08-02T22:43:23.134Z,19.65
2022-08-02T22:45:52.019Z,19.63
2022-08-02T22:48:20.737Z,19.59
2022-08-02T22:50:53.876Z,19.57
2022-08-02T22:53:35.529Z,19.56
2022-08-02T22:56:05.169Z,19.52
2022-08-02T22:58:33.553Z,19.50
2022-08-02T22:58:53.026Z,22.42
2022-08-02T22:59:00.513Z,23.62
2022-08-02T23:01:01.983Z,19.48
2022-08-02T23:03:30.754Z,19.46
2022-08-02T23:05:59.163Z,19.42
2022-08-02T23:08:27.702Z,19.40
2022-08-02T23:10:55.980Z,19.38
2022-08-02T23:13:28.196Z,19.35
2022-08-02T23:16:15.120Z,19.34
2022-08-02T23:19:02.217Z,19.32
2022-08-02T23:22:01.332Z,19.31
2022-08-02T23:24:23.569Z,19.29
2022-08-02T23:26:53.582Z,19.28
2022-08-02T23:29:22.609Z,19.27
2022-08-02T23:31:50.990Z,19.26
2022-08-02T23:34:21.254Z,19.27
2022-08-02T23:36:49.689Z,19.25
2022-08-02T23:39:18.060Z,19.24
2022-08-02T23:41:54.625Z,19.23
2022-08-02T23:44:25.130Z,19.22
2022-08-02T23:46:54.883Z,19.22
2022-08-02T23:49:24.513Z,19.21
2022-08-02T23:51:59.576Z,19.20
2022-08-02T23:54:30.783Z,19.19
2022-08-02T23:56:59.429Z,19.18
2022-08-02T23:59:27.855Z,19.17
